createdAt,value
2019-02-17T00:00:05.009Z,101681.15
2019-02-17T00:02:35.999Z,101661.47
2019-02-17T00:05:06.938Z,101665.24
2019-02-17T00:07:38.952Z,101658.84
2019-02-17T00:10:09.851Z,101657.37
2019-02-17T00:12:41.872Z,101660.48
2019-02-17T00:15:13.034Z,101651.97
2019-02-17T00:17:43.655Z,101646.36
2019-02-17T00:20:14.457Z,101644.73
2019-02-17T00:22:45.217Z,101635.38
2019-02-17T00:25:16.275Z,101644.14
2019-02-17T00:27:47.068Z,101637.31
2019-02-17T00:30:18.587Z,101636.45
2019-02-17T00:32:49.323Z,101633.77
2019-02-17T00:35:20.097Z,101631.30
2019-02-17T00:37:51.113Z,101634.18
2019-02-17T00:40:22.196Z,101637.37
2019-02-17T00:42:54.274Z,101636.52
2019-02-17T00:45:24.926Z,101623.51
2019-02-17T00:47:55.822Z,101623.44
2019-02-17T00:50:26.465Z,101621.75
2019-02-17T00:52:57.324Z,101622.58
2019-02-17T00:55:27.994Z,101616.35
2019-02-17T00:57:58.730Z,101617.57
2019-02-17T01:00:29.467Z,101613.53
2019-02-17T01:03:00.131Z,101612.28
2019-02-17T01:05:33.226Z,101607.77
2019-02-17T01:08:06.927Z,101605.22
2019-02-17T01:10:37.757Z,101598.64
2019-02-17T01:13:08.568Z,101593.82
2019-02-17T01:15:39.417Z,101593.42
2019-02-17T01:18:10.097Z,101590.45
2019-02-17T01:20:41.039Z,101586.95
2019-02-17T01:23:11.719Z,101589.47
2019-02-17T01:25:42.716Z,101579.51
2019-02-17T01:28:13.417Z,101566.52
2019-02-17T01:30:44.486Z,101572.02
2019-02-17T01:33:15.353Z,101574.16
2019-02-17T01:35:46.226Z,101576.28
2019-02-17T01:38:16.823Z,101566.75
2019-02-17T01:40:48.846Z,101561.48
2019-02-17T01:43:19.407Z,101564.47
2019-02-17T01:45:50.070Z,101559.37
2019-02-17T01:48:20.903Z,101561.14
2019-02-17T01:50:51.483Z,101561.02
2019-02-17T01:53:22.161Z,101556.78
2019-02-17T01:55:52.883Z,101553.03
2019-02-17T01:58:24.096Z,101558.30
2019-02-17T02:00:54.932Z,101557.51
2019-02-17T02:03:25.806Z,101556.69
2019-02-17T02:05:56.427Z,101544.81
2019-02-17T02:08:27.221Z,101546.19
2019-02-17T02:10:57.972Z,101546.07
2019-02-17T02:13:29.787Z,101540.94
2019-02-17T02:16:00.666Z,101533.95
2019-02-17T02:18:32.287Z,101535.72
2019-02-17T02:21:02.932Z,101536.20
2019-02-17T02:23:33.642Z,101535.77
2019-02-17T02:26:04.712Z,101534.47
2019-02-17T02:28:35.544Z,101532.27
2019-02-17T02:31:06.345Z,101532.39
2019-02-17T02:33:37.370Z,101535.45
2019-02-17T02:36:07.903Z,101535.97
2019-02-17T02:38:38.687Z,101541.87
2019-02-17T02:41:09.363Z,101544.94
2019-02-17T02:43:46.588Z,101541.87
2019-02-17T02:46:17.397Z,101541.87
2019-02-17T02:48:48.387Z,101537.61
2019-02-17T02:51:19.176Z,101536.79
2019-02-17T02:53:50.206Z,101542.23
2019-02-17T02:56:22.225Z,101541.45
2019-02-17T02:58:53.051Z,101540.08
2019-02-17T03:01:23.852Z,101529.41
2019-02-17T03:03:54.530Z,101528.98
2019-02-17T03:06:37.903Z,101534.12
2019-02-17T03:09:09.083Z,101527.64
2019-02-17T03:11:40.401Z,101535.45
2019-02-17T03:14:13.453Z,101534.16
2019-02-17T03:16:44.165Z,101528.73
2019-02-17T03:19:14.817Z,101535.20
2019-02-17T03:21:45.484Z,101526.16
2019-02-17T03:24:18.840Z,101529.64
2019-02-17T03:26:49.784Z,101527.36
2019-02-17T03:29:20.425Z,101524.47
2019-02-17T03:31:51.286Z,101524.81
2019-02-17T03:34:23.033Z,101521.80
2019-02-17T03:36:53.793Z,101520.55
2019-02-17T03:39:24.500Z,101518.05
2019-02-17T03:41:55.771Z,101520.98
2019-02-17T03:44:26.674Z,101514.94
2019-02-17T03:46:57.299Z,101520.85
2019-02-17T03:49:28.197Z,101515.77
2019-02-17T03:51:59.223Z,101514.81
2019-02-17T03:54:29.842Z,101519.08
2019-02-17T03:57:20.837Z,101517.40
2019-02-17T03:59:51.484Z,101519.98
2019-02-17T04:02:22.357Z,101518.14
2019-02-17T04:04:53.193Z,101515.94
2019-02-17T04:07:24.304Z,101516.45
2019-02-17T04:09:55.132Z,101521.33
2019-02-17T04:12:25.906Z,101519.08
2019-02-17T04:14:57.793Z,101518.65
2019-02-17T04:17:28.942Z,101519.05
2019-02-17T04:19:59.688Z,101521.28
2019-02-17T04:22:30.440Z,101526.45
2019-02-17T04:25:01.305Z,101525.30
2019-02-17T04:27:31.848Z,101519.25
2019-02-17T04:30:02.356Z,101519.69
2019-02-17T04:32:33.103Z,101515.77
2019-02-17T04:35:03.808Z,101517.05
2019-02-17T04:37:34.374Z,101512.36
2019-02-17T04:40:05.409Z,101516.83
2019-02-17T04:42:36.082Z,101516.01
2019-02-17T04:45:08.269Z,101523.42
2019-02-17T04:47:38.951Z,101523.08
2019-02-17T04:50:09.762Z,101525.23
2019-02-17T04:52:40.849Z,101524.37
2019-02-17T04:55:11.615Z,101532.64
2019-02-17T04:57:45.891Z,101530.91
2019-02-17T05:00:16.696Z,101530.01
2019-02-17T05:02:47.621Z,101542.48
2019-02-17T05:05:18.447Z,101539.89
2019-02-17T05:07:48.951Z,101547.81
2019-02-17T05:10:19.520Z,101536.98
2019-02-17T05:12:50.231Z,101543.53
2019-02-17T05:15:20.910Z,101536.95
2019-02-17T05:17:51.615Z,101547.73
2019-02-17T05:20:22.362Z,101535.27
2019-02-17T05:22:52.986Z,101536.09
2019-02-17T05:25:26.153Z,101537.30
2019-02-17T05:27:57.905Z,101526.22
2019-02-17T05:30:28.691Z,101535.97
2019-02-17T05:32:59.392Z,101538.08
2019-02-17T05:35:30.126Z,101541.84
2019-02-17T05:38:02.009Z,101548.92
2019-02-17T05:40:32.823Z,101551.73
2019-02-17T05:43:03.914Z,101549.67
2019-02-17T05:45:34.566Z,101558.73
2019-02-17T05:48:05.635Z,101560.79
2019-02-17T05:50:36.919Z,101560.38
2019-02-17T05:53:08.151Z,101560.33
2019-02-17T05:55:38.779Z,101563.98
2019-02-17T05:58:09.990Z,101567.78
2019-02-17T06:00:41.457Z,101569.42
2019-02-17T06:03:11.908Z,101568.50
2019-02-17T06:05:42.459Z,101572.10
2019-02-17T06:08:13.241Z,101576.03
2019-02-17T06:10:44.192Z,101578.08
2019-02-17T06:13:14.967Z,101570.09
2019-02-17T06:15:45.931Z,101571.27
2019-02-17T06:18:18.125Z,101568.19
2019-02-17T06:20:48.978Z,101565.31
2019-02-17T06:23:19.468Z,101573.88
2019-02-17T06:25:50.479Z,101566.41
2019-02-17T06:28:21.457Z,101579.93
2019-02-17T06:30:52.005Z,101579.53
2019-02-17T06:33:22.720Z,101579.20
2019-02-17T06:35:53.707Z,101578.36
2019-02-17T06:38:24.565Z,101581.23
2019-02-17T06:40:55.116Z,101583.83
2019-02-17T06:43:26.177Z,101586.59
2019-02-17T06:45:56.907Z,101587.03
2019-02-17T06:48:27.654Z,101584.61
2019-02-17T06:50:58.289Z,101586.55
2019-02-17T06:53:30.643Z,101596.30
2019-02-17T06:56:13.124Z,101592.20
2019-02-17T06:58:44.312Z,101586.45
2019-02-17T07:01:24.149Z,101591.47
2019-02-17T07:03:48.548Z,101591.56
2019-02-17T07:06:34.945Z,101594.27
2019-02-17T07:09:06.250Z,101591.14
2019-02-17T07:11:37.340Z,101597.78
2019-02-17T07:14:07.795Z,101592.92
2019-02-17T07:16:38.840Z,101597.14
2019-02-17T07:19:12.002Z,101597.78
2019-02-17T07:21:42.962Z,101591.21
2019-02-17T07:24:13.570Z,101586.31
2019-02-17T07:26:44.109Z,101587.77
2019-02-17T07:29:16.769Z,101591.70
2019-02-17T07:31:47.318Z,101589.86
2019-02-17T07:34:17.728Z,101586.52
2019-02-17T07:36:48.556Z,101592.73
2019-02-17T07:39:21.638Z,101589.16
2019-02-17T07:41:52.929Z,101585.23
2019-02-17T07:44:23.606Z,101590.05
2019-02-17T07:46:55.079Z,101581.33
2019-02-17T07:49:25.913Z,101586.94
2019-02-17T07:51:57.812Z,101579.83
2019-02-17T07:54:28.485Z,101581.84
2019-02-17T07:57:00.055Z,101577.17
2019-02-17T07:59:30.530Z,101583.58
2019-02-17T08:02:01.522Z,101583.58
2019-02-17T08:04:32.429Z,101579.32
2019-02-17T08:07:03.343Z,101582.22
2019-02-17T08:09:33.945Z,101584.95
2019-02-17T08:12:04.883Z,101575.72
2019-02-17T08:14:35.950Z,101575.72
2019-02-17T08:17:06.891Z,101580.86
2019-02-17T08:19:39.706Z,101580.86
2019-02-17T08:22:17.855Z,101571.45
2019-02-17T08:24:49.390Z,101577.08
2019-02-17T08:27:19.900Z,101572.20
2019-02-17T08:29:51.639Z,101573.00
2019-02-17T08:32:23.794Z,101572.11
2019-02-17T08:34:54.498Z,101572.11
2019-02-17T08:37:25.425Z,101570.69
2019-02-17T08:39:56.630Z,101575.66
2019-02-17T08:42:27.702Z,101565.77
2019-02-17T08:44:58.379Z,101575.28
2019-02-17T08:47:29.158Z,101575.28
2019-02-17T08:49:59.979Z,101571.20
2019-02-17T08:52:30.914Z,101576.48
2019-02-17T08:55:03.771Z,101574.85
2019-02-17T08:57:34.381Z,101570.23
2019-02-17T09:00:05.214Z,101563.20
2019-02-17T09:02:36.729Z,101563.20
2019-02-17T09:05:07.400Z,101559.58
2019-02-17T09:07:38.576Z,101565.96
2019-02-17T09:10:10.767Z,101558.52
2019-02-17T09:12:41.561Z,101558.82
2019-02-17T09:15:13.222Z,101555.78
2019-02-17T09:17:44.034Z,101556.13
2019-02-17T09:20:15.054Z,101552.19
2019-02-17T09:22:46.971Z,101550.33
2019-02-17T09:25:17.623Z,101547.98
2019-02-17T09:27:48.355Z,101546.78
2019-02-17T09:30:19.653Z,101549.47
2019-02-17T09:32:50.465Z,101541.05
2019-02-17T09:35:26.716Z,101543.74
2019-02-17T09:37:58.487Z,101547.77
2019-02-17T09:40:30.696Z,101542.86
2019-02-17T09:43:05.140Z,101538.70
2019-02-17T09:45:35.910Z,101532.66
2019-02-17T09:48:06.979Z,101533.59
2019-02-17T09:50:37.952Z,101531.75
2019-02-17T09:53:08.764Z,101523.59
2019-02-17T09:55:39.651Z,101522.94
2019-02-17T09:58:11.494Z,101520.69
2019-02-17T10:00:42.319Z,101523.06
2019-02-17T10:03:13.381Z,101521.06
2019-02-17T10:05:44.278Z,101514.31
2019-02-17T10:08:15.510Z,101513.75
2019-02-17T10:10:46.555Z,101515.22
2019-02-17T10:13:18.686Z,101509.73
2019-02-17T10:15:49.935Z,101508.00
2019-02-17T10:18:23.484Z,101506.61
2019-02-17T10:20:54.974Z,101508.92
2019-02-17T10:23:27.961Z,101506.14
2019-02-17T10:25:58.688Z,101499.04
2019-02-17T10:28:30.663Z,101495.31
2019-02-17T10:31:02.568Z,101494.86
2019-02-17T10:33:33.593Z,101494.45
2019-02-17T10:36:04.359Z,101483.36
2019-02-17T10:38:35.439Z,101486.72
2019-02-17T10:41:06.500Z,101486.78
2019-02-17T10:43:38.171Z,101477.03
2019-02-17T10:46:09.061Z,101472.39
2019-02-17T10:48:40.440Z,101470.95
2019-02-17T10:51:11.810Z,101470.45
2019-02-17T10:53:42.728Z,101463.50
2019-02-17T10:56:14.048Z,101462.91
2019-02-17T10:58:45.552Z,101459.12
2019-02-17T11:01:17.182Z,101456.81
2019-02-17T11:04:03.493Z,101449.57
2019-02-17T11:06:34.610Z,101448.08
2019-02-17T11:09:19.044Z,101443.82
2019-02-17T11:11:49.779Z,101435.78
2019-02-17T11:14:20.726Z,101431.84
2019-02-17T11:16:52.910Z,101432.52
2019-02-17T11:19:23.470Z,101426.69
2019-02-17T11:21:54.546Z,101429.16
2019-02-17T11:24:29.592Z,101426.27
2019-02-17T11:27:01.055Z,101433.34
2019-02-17T11:29:32.443Z,101424.98
2019-02-17T11:32:04.097Z,101425.03
2019-02-17T11:34:39.719Z,101421.95
2019-02-17T11:37:10.382Z,101422.62
2019-02-17T11:39:41.256Z,101416.91
2019-02-17T11:42:11.737Z,101415.59
2019-02-17T11:44:42.691Z,101409.14
2019-02-17T11:47:13.209Z,101398.47
2019-02-17T11:49:43.856Z,101395.36
2019-02-17T11:52:14.555Z,101399.38
2019-02-17T11:54:44.947Z,101397.60
2019-02-17T11:57:15.641Z,101395.07
2019-02-17T11:59:46.688Z,101393.28
2019-02-17T12:02:24.714Z,101388.83
2019-02-17T12:04:50.246Z,101387.25
2019-02-17T12:07:20.798Z,101389.03
2019-02-17T12:09:51.560Z,101394.71
2019-02-17T12:12:22.588Z,101389.41
2019-02-17T12:14:53.240Z,101389.95
2019-02-17T12:17:23.995Z,101385.64
2019-02-17T12:20:04.299Z,101384.91
2019-02-17T12:22:42.915Z,101387.33
2019-02-17T12:25:52.013Z,101380.50
2019-02-17T12:28:42.419Z,101380.59
2019-02-17T12:31:18.156Z,101384.64
2019-02-17T12:33:50.946Z,101379.70
2019-02-17T12:36:22.908Z,101370.98
2019-02-17T12:38:55.973Z,101379.55
2019-02-17T12:41:27.470Z,101373.82
2019-02-17T12:43:59.339Z,101364.20
2019-02-17T12:46:31.546Z,101366.70
2019-02-17T12:49:02.058Z,101365.07
2019-02-17T12:51:32.851Z,101361.45
2019-02-17T12:54:03.566Z,101362.06
2019-02-17T12:56:33.888Z,101362.06
2019-02-17T12:59:04.540Z,101358.67
2019-02-17T13:01:35.519Z,101358.78
2019-02-17T13:04:06.020Z,101356.23
2019-02-17T13:06:36.655Z,101349.48
2019-02-17T13:09:09.482Z,101348.31
2019-02-17T13:11:40.137Z,101351.70
2019-02-17T13:14:12.272Z,101351.67
2019-02-17T13:16:43.832Z,101348.52
2019-02-17T13:19:14.880Z,101349.99
2019-02-17T13:21:45.585Z,101349.99
2019-02-17T13:24:16.269Z,101353.61
2019-02-17T13:26:47.600Z,101340.84
2019-02-17T13:29:19.242Z,101340.84
2019-02-17T13:31:50.227Z,101346.05
2019-02-17T13:34:21.004Z,101336.22
2019-02-17T13:36:51.856Z,101336.22
2019-02-17T13:39:22.607Z,101342.33
2019-02-17T13:41:53.530Z,101338.27
2019-02-17T13:44:24.662Z,101341.78
2019-02-17T13:46:55.827Z,101341.78
2019-02-17T13:49:26.634Z,101334.70
2019-02-17T13:51:57.718Z,101334.59
2019-02-17T13:54:28.550Z,101327.06
2019-02-17T13:56:59.629Z,101327.06
2019-02-17T13:59:30.486Z,101332.92
2019-02-17T14:02:03.393Z,101331.92
2019-02-17T14:04:34.513Z,101324.63
2019-02-17T14:07:05.395Z,101322.36
2019-02-17T14:09:35.966Z,101322.36
2019-02-17T14:12:06.596Z,101318.84
2019-02-17T14:14:38.894Z,101315.44
2019-02-17T14:17:10.148Z,101315.44
2019-02-17T14:19:41.064Z,101306.02
2019-02-17T14:22:13.066Z,101306.02
2019-02-17T14:24:43.493Z,101317.31
2019-02-17T14:27:14.478Z,101316.22
2019-02-17T14:29:45.194Z,101320.71
2019-02-17T14:32:16.632Z,101320.71
2019-02-17T14:34:48.794Z,101316.58
2019-02-17T14:37:19.763Z,101314.34
2019-02-17T14:39:52.410Z,101303.56
2019-02-17T14:42:23.790Z,101295.81
2019-02-17T14:44:54.956Z,101295.81
2019-02-17T14:47:25.571Z,101302.86
2019-02-17T14:49:56.874Z,101297.80
2019-02-17T14:52:27.887Z,101292.88
2019-02-17T14:54:59.589Z,101294.76
2019-02-17T14:57:30.163Z,101292.23
2019-02-17T15:00:01.801Z,101289.77
2019-02-17T15:02:32.817Z,101294.69
2019-02-17T15:05:03.503Z,101284.93
2019-02-17T15:07:36.856Z,101290.14
2019-02-17T15:10:09.063Z,101292.06
2019-02-17T15:12:39.823Z,101290.28
2019-02-17T15:15:11.386Z,101286.79
2019-02-17T15:17:42.193Z,101288.33
2019-02-17T15:20:13.399Z,101285.94
2019-02-17T15:22:44.752Z,101298.09
2019-02-17T15:25:17.583Z,101297.58
2019-02-17T15:27:49.017Z,101298.43
2019-02-17T15:30:20.575Z,101296.92
2019-02-17T15:32:50.906Z,101294.08
2019-02-17T15:35:22.527Z,101303.31
2019-02-17T15:37:55.840Z,101303.89
2019-02-17T15:40:26.773Z,101299.41
2019-02-17T15:42:57.110Z,101303.95
2019-02-17T15:45:28.062Z,101299.95
2019-02-17T15:47:58.707Z,101302.34
2019-02-17T15:50:29.114Z,101299.66
2019-02-17T15:52:59.555Z,101300.36
2019-02-17T15:55:30.030Z,101298.42
2019-02-17T15:58:01.221Z,101298.80
2019-02-17T16:00:36.274Z,101299.50
2019-02-17T16:03:06.842Z,101297.17
2019-02-17T16:05:37.412Z,101297.99
2019-02-17T16:08:08.230Z,101304.23
2019-02-17T16:10:40.722Z,101306.66
2019-02-17T16:13:11.747Z,101314.69
2019-02-17T16:15:43.020Z,101319.09
2019-02-17T16:18:13.562Z,101320.89
2019-02-17T16:20:45.716Z,101317.23
2019-02-17T16:23:16.476Z,101322.54
2019-02-17T16:25:49.722Z,101315.70
2019-02-17T16:28:20.763Z,101323.59
2019-02-17T16:30:51.576Z,101324.95
2019-02-17T16:33:22.750Z,101322.36
2019-02-17T16:35:53.094Z,101321.45
2019-02-17T16:38:24.206Z,101324.52
2019-02-17T16:40:59.750Z,101333.74
2019-02-17T16:43:31.748Z,101333.80
2019-02-17T16:46:02.211Z,101329.17
2019-02-17T16:48:35.325Z,101324.95
2019-02-17T16:51:06.166Z,101322.05
2019-02-17T16:53:37.593Z,101327.83
2019-02-17T16:56:08.494Z,101328.83
2019-02-17T16:58:39.464Z,101326.92
2019-02-17T17:01:13.033Z,101327.20
2019-02-17T17:03:46.120Z,101324.69
2019-02-17T17:06:19.257Z,101324.75
2019-02-17T17:08:50.050Z,101322.34
2019-02-17T17:11:20.839Z,101319.50
2019-02-17T17:13:51.876Z,101316.02
2019-02-17T17:16:25.756Z,101313.20
2019-02-17T17:18:56.659Z,101314.44
2019-02-17T17:21:27.811Z,101321.48
2019-02-17T17:24:01.288Z,101313.38
2019-02-17T17:26:31.778Z,101309.36
2019-02-17T17:29:02.737Z,101308.06
2019-02-17T17:31:34.748Z,101307.50
2019-02-17T17:34:05.783Z,101306.31
2019-02-17T17:36:38.824Z,101306.70
2019-02-17T17:39:10.498Z,101301.81
2019-02-17T17:41:44.699Z,101303.67
2019-02-17T17:44:16.937Z,101304.06
2019-02-17T17:46:49.048Z,101293.56
2019-02-17T17:49:19.742Z,101299.73
2019-02-17T17:51:50.611Z,101292.27
2019-02-17T17:54:21.823Z,101296.77
2019-02-17T17:56:52.552Z,101291.02
2019-02-17T17:59:23.253Z,101292.73
2019-02-17T18:01:54.270Z,101285.70
2019-02-17T18:04:25.526Z,101292.73
2019-02-17T18:06:57.158Z,101292.19
2019-02-17T18:09:27.839Z,101291.86
2019-02-17T18:11:59.907Z,101292.83
2019-02-17T18:14:30.794Z,101292.08
2019-02-17T18:17:01.612Z,101285.34
2019-02-17T18:19:33.314Z,101287.62
2019-02-17T18:22:03.963Z,101291.20
2019-02-17T18:24:38.698Z,101290.95
2019-02-17T18:27:09.097Z,101287.17
2019-02-17T18:29:40.005Z,101289.82
2019-02-17T18:32:11.119Z,101287.23
2019-02-17T18:34:41.899Z,101283.39
2019-02-17T18:37:12.331Z,101282.05
2019-02-17T18:39:42.929Z,101283.02
2019-02-17T18:42:14.747Z,101287.83
2019-02-17T18:44:45.403Z,101290.09
2019-02-17T18:47:16.911Z,101283.36
2019-02-17T18:49:48.335Z,101287.63
2019-02-17T18:52:19.623Z,101287.56
2019-02-17T18:54:52.702Z,101286.65
2019-02-17T18:57:25.599Z,101283.36
2019-02-17T18:59:57.088Z,101290.83
2019-02-17T19:02:27.821Z,101281.59
2019-02-17T19:05:01.072Z,101277.20
2019-02-17T19:07:32.119Z,101287.31
2019-02-17T19:10:03.118Z,101287.70
2019-02-17T19:12:36.833Z,101295.53
2019-02-17T19:15:08.669Z,101290.67
2019-02-17T19:17:42.201Z,101295.69
2019-02-17T19:20:15.908Z,101297.31
2019-02-17T19:22:50.281Z,101286.35
2019-02-17T19:25:21.441Z,101286.35
2019-02-17T19:27:52.485Z,101283.77
2019-02-17T19:30:23.551Z,101274.20
2019-02-17T19:32:54.196Z,101279.80
2019-02-17T19:35:25.403Z,101279.38
2019-02-17T19:37:56.990Z,101278.73
2019-02-17T19:40:28.658Z,101274.20
2019-02-17T19:42:59.506Z,101268.91
2019-02-17T19:45:30.618Z,101270.63
2019-02-17T19:48:04.142Z,101276.58
2019-02-17T19:50:35.592Z,101283.38
2019-02-17T19:53:06.573Z,101278.63
2019-02-17T19:55:38.270Z,101282.77
2019-02-17T19:58:10.039Z,101281.22
2019-02-17T20:00:41.031Z,101287.16
2019-02-17T20:03:37.859Z,101284.78
2019-02-17T20:06:09.114Z,101287.27
2019-02-17T20:08:39.854Z,101280.67
2019-02-17T20:11:10.323Z,101273.34
2019-02-17T20:13:41.793Z,101263.08
2019-02-17T20:16:12.333Z,101261.84
2019-02-17T20:18:43.131Z,101261.14
2019-02-17T20:21:14.721Z,101266.22
2019-02-17T20:23:46.900Z,101262.55
2019-02-17T20:26:18.206Z,101255.41
2019-02-17T20:28:57.256Z,101244.79
2019-02-17T20:31:27.058Z,101244.72
2019-02-17T20:33:57.791Z,101245.31
2019-02-17T20:36:28.641Z,101245.54
2019-02-17T20:38:59.526Z,101250.99
2019-02-17T20:41:30.909Z,101249.11
2019-02-17T20:44:02.904Z,101246.75
2019-02-17T20:46:34.430Z,101243.02
2019-02-17T20:49:05.472Z,101246.56
2019-02-17T20:51:36.175Z,101240.98
2019-02-17T20:54:07.151Z,101246.68
2019-02-17T20:56:38.531Z,101255.80
2019-02-17T20:59:10.976Z,101250.97
2019-02-17T21:01:42.705Z,101251.89
2019-02-17T21:04:13.803Z,101247.26
2019-02-17T21:06:48.061Z,101254.48
2019-02-17T21:09:20.092Z,101252.16
2019-02-17T21:11:51.309Z,101253.80
2019-02-17T21:14:22.443Z,101257.16
2019-02-17T21:16:53.390Z,101259.70
2019-02-17T21:19:24.905Z,101259.20
2019-02-17T21:21:55.575Z,101254.63
2019-02-17T21:24:27.039Z,101257.96
2019-02-17T21:26:58.364Z,101251.59
2019-02-17T21:29:30.212Z,101253.56
2019-02-17T21:32:00.984Z,101245.78
2019-02-17T21:34:31.995Z,101250.17
2019-02-17T21:37:03.957Z,101252.55
2019-02-17T21:39:34.345Z,101257.83
2019-02-17T21:42:05.309Z,101244.92
2019-02-17T21:44:36.191Z,101249.53
2019-02-17T21:47:07.215Z,101249.24
2019-02-17T21:49:38.444Z,101255.37
2019-02-17T21:52:09.565Z,101253.52
2019-02-17T21:54:39.988Z,101247.34
2019-02-17T21:57:10.968Z,101253.21
2019-02-17T21:59:42.443Z,101250.72
2019-02-17T22:02:14.172Z,101250.11
2019-02-17T22:04:45.425Z,101245.48
2019-02-17T22:07:16.977Z,101243.86
2019-02-17T22:09:48.178Z,101239.85
2019-02-17T22:12:19.049Z,101235.56
2019-02-17T22:14:50.169Z,101244.08
2019-02-17T22:17:21.117Z,101233.74
2019-02-17T22:19:51.811Z,101240.41
2019-02-17T22:22:23.052Z,101243.78
2019-02-17T22:24:54.150Z,101247.58
2019-02-17T22:27:25.171Z,101245.46
2019-02-17T22:29:56.439Z,101239.42
2019-02-17T22:32:28.443Z,101237.32
2019-02-17T22:34:59.222Z,101230.04
2019-02-17T22:37:29.849Z,101231.55
2019-02-17T22:40:00.615Z,101231.55
2019-02-17T22:42:31.503Z,101225.02
2019-02-17T22:45:02.325Z,101223.03
2019-02-17T22:47:33.230Z,101223.89
2019-02-17T22:50:07.617Z,101222.28
2019-02-17T22:52:38.680Z,101221.00
2019-02-17T22:55:10.203Z,101216.23
2019-02-17T22:57:40.960Z,101213.98
2019-02-17T23:00:18.938Z,101213.16
2019-02-17T23:02:49.770Z,101212.04
2019-02-17T23:05:20.596Z,101197.09
2019-02-17T23:07:51.589Z,101192.53
2019-02-17T23:10:22.413Z,101181.69
2019-02-17T23:12:52.963Z,101182.21
2019-02-17T23:15:24.156Z,101188.10
2019-02-17T23:17:54.993Z,101176.84
2019-02-17T23:20:26.209Z,101172.77
2019-02-17T23:22:57.242Z,101170.14
2019-02-17T23:25:28.675Z,101170.39
2019-02-17T23:27:59.196Z,101162.66
2019-02-17T23:30:30.074Z,101163.00
2019-02-17T23:33:02.087Z,101166.75
2019-02-17T23:35:34.350Z,101165.31
2019-02-17T23:38:05.238Z,101164.17
2019-02-17T23:40:36.334Z,101156.94
2019-02-17T23:43:07.034Z,101168.13
2019-02-17T23:45:37.966Z,101161.48
2019-02-17T23:48:08.849Z,101161.89
2019-02-17T23:50:40.114Z,101161.38
2019-02-17T23:53:11.116Z,101160.11
2019-02-17T23:55:42.056Z,101151.56
2019-02-17T23:58:12.831Z,101165.50
